createdAt,value
2023-01-28T00:00:13.885Z,5.03
2023-01-28T00:02:39.972Z,3.58
2023-01-28T00:05:06.414Z,5.40
2023-01-28T00:07:34.879Z,5.72
2023-01-28T00:10:02.345Z,4.75
2023-01-28T00:12:30.331Z,5.18
2023-01-28T00:14:57.721Z,4.82
2023-01-28T00:17:25.434Z,5.95
2023-01-28T00:19:53.399Z,7.13
2023-01-28T00:22:20.736Z,5.88
2023-01-28T00:24:48.525Z,6.40
2023-01-28T00:27:16.419Z,8.27
2023-01-28T00:29:44.036Z,5.82
2023-01-28T00:32:13.521Z,5.93
2023-01-28T00:34:41.254Z,7.18
2023-01-28T00:37:08.590Z,7.10
2023-01-28T00:39:36.279Z,7.95
2023-01-28T00:42:04.101Z,6.78
2023-01-28T00:44:32.119Z,4.40
2023-01-28T00:47:03.842Z,6.37
2023-01-28T00:49:31.514Z,9.25
2023-01-28T00:51:58.999Z,7.60
2023-01-28T00:54:26.972Z,8.93
2023-01-28T00:56:55.197Z,4.78
2023-01-28T00:59:22.788Z,7.50
2023-01-28T01:01:51.004Z,6.45
2023-01-28T01:04:27.178Z,7.55
2023-01-28T01:06:54.932Z,7.65
2023-01-28T01:09:23.277Z,7.95
2023-01-28T01:11:51.234Z,6.72
2023-01-28T01:14:19.076Z,5.10
2023-01-28T01:16:47.475Z,7.32
2023-01-28T01:19:15.460Z,6.75
2023-01-28T01:21:43.640Z,7.05
2023-01-28T01:24:13.784Z,6.75
2023-01-28T01:26:41.434Z,8.40
2023-01-28T01:29:10.486Z,8.07
2023-01-28T01:31:38.405Z,6.75
2023-01-28T01:34:06.060Z,9.70
2023-01-28T01:36:33.563Z,7.78
2023-01-28T01:39:00.778Z,7.57
2023-01-28T01:41:31.495Z,7.05
2023-01-28T01:44:05.065Z,6.65
2023-01-28T01:46:51.592Z,6.68
2023-01-28T01:49:26.495Z,5.70
2023-01-28T01:52:00.707Z,5.93
2023-01-28T01:54:32.380Z,7.57
2023-01-28T01:57:01.891Z,7.07
2023-01-28T01:59:33.953Z,5.20
2023-01-28T02:04:36.018Z,6.78
2023-01-28T02:07:04.681Z,6.93
2023-01-28T02:09:36.521Z,7.00
2023-01-28T02:12:10.940Z,7.72
2023-01-28T02:14:54.995Z,7.25
2023-01-28T02:17:23.267Z,7.50
2023-01-28T02:20:02.987Z,6.25
2023-01-28T02:23:21.741Z,6.90
2023-01-28T02:26:04.337Z,8.45
2023-01-28T02:28:46.878Z,5.63
2023-01-28T02:31:26.825Z,6.05
2023-01-28T02:34:11.007Z,6.13
2023-01-28T02:36:54.207Z,6.60
2023-01-28T02:39:29.328Z,4.60
2023-01-28T02:42:33.880Z,6.05
2023-01-28T02:45:01.108Z,4.78
2023-01-28T02:47:47.184Z,5.93
2023-01-28T02:50:20.083Z,5.25
2023-01-28T02:53:35.465Z,4.82
2023-01-28T02:56:39.042Z,4.60
2023-01-28T02:59:34.500Z,5.53
2023-01-28T03:02:08.856Z,6.40
2023-01-28T03:04:52.012Z,4.38
2023-01-28T03:07:20.959Z,5.05
2023-01-28T03:09:51.606Z,4.85
2023-01-28T03:12:40.799Z,4.88
2023-01-28T03:15:36.708Z,4.50
2023-01-28T03:18:28.831Z,4.57
2023-01-28T03:21:30.701Z,5.35
2023-01-28T03:24:25.417Z,4.30
2023-01-28T03:30:04.330Z,4.30
2023-01-28T03:32:51.874Z,5.15
2023-01-28T03:35:41.919Z,4.18
2023-01-28T03:38:23.932Z,4.63
2023-01-28T03:40:55.975Z,4.93
2023-01-28T03:43:23.984Z,5.80
2023-01-28T03:45:51.706Z,4.07
2023-01-28T08:03:57.705Z,3.92
2023-01-28T08:06:23.861Z,5.50
2023-01-28T08:08:49.876Z,4.82
2023-01-28T08:11:17.463Z,6.82
2023-01-28T08:13:44.803Z,6.65
2023-01-28T08:16:12.314Z,7.13
2023-01-28T08:18:40.434Z,5.95
2023-01-28T08:21:07.883Z,6.95
2023-01-28T08:23:35.495Z,6.22
2023-01-28T08:26:02.871Z,7.10
2023-01-28T08:28:30.897Z,7.38
2023-01-28T08:31:01.277Z,7.32
2023-01-28T08:33:28.658Z,4.97
2023-01-28T08:35:56.468Z,6.35
2023-01-28T08:38:24.141Z,7.80
2023-01-28T08:40:53.957Z,6.97
2023-01-28T08:43:22.102Z,5.85
2023-01-28T08:45:49.636Z,6.32
2023-01-28T08:48:18.968Z,6.00
2023-01-28T08:50:46.634Z,8.45
2023-01-28T08:53:19.511Z,6.25
2023-01-28T08:55:47.886Z,5.75
2023-01-28T08:58:17.460Z,6.88
2023-01-28T09:00:46.210Z,4.97
2023-01-28T09:03:13.465Z,5.28
2023-01-28T09:05:40.956Z,6.68
2023-01-28T09:08:12.034Z,4.65
2023-01-28T09:10:41.407Z,6.93
2023-01-28T09:13:11.950Z,7.97
2023-01-28T09:15:39.935Z,8.98
2023-01-28T09:18:07.908Z,6.97
2023-01-28T09:20:35.689Z,8.65
2023-01-28T09:23:03.794Z,9.85
2023-01-28T09:25:31.315Z,10.38
2023-01-28T09:27:59.425Z,7.72
2023-01-28T09:30:27.467Z,6.20
2023-01-28T09:32:56.319Z,6.40
2023-01-28T09:35:24.637Z,7.05
2023-01-28T09:37:52.472Z,7.82
2023-01-28T09:40:38.644Z,6.72
2023-01-28T09:43:26.059Z,7.88
2023-01-28T09:45:58.998Z,5.63
2023-01-28T09:48:34.152Z,6.97
2023-01-28T09:51:02.114Z,5.75
2023-01-28T09:53:37.395Z,6.63
2023-01-28T09:56:08.823Z,4.47
2023-01-28T09:58:36.411Z,7.07
2023-01-28T10:01:34.741Z,6.47
2023-01-28T10:04:59.122Z,5.80
2023-01-28T10:07:29.258Z,6.25
2023-01-28T10:10:09.132Z,7.90
2023-01-28T10:13:15.453Z,6.60
2023-01-28T10:16:02.228Z,7.05
2023-01-28T10:18:50.752Z,6.97
2023-01-28T10:21:27.946Z,6.22
2023-01-28T10:24:26.179Z,7.50
2023-01-28T10:26:53.956Z,6.82
2023-01-28T10:29:26.105Z,5.15
2023-01-28T10:32:04.467Z,6.93
2023-01-28T10:34:32.616Z,5.97
2023-01-28T10:37:00.619Z,5.97
2023-01-28T10:39:30.085Z,7.18
2023-01-28T10:41:59.014Z,5.93
2023-01-28T10:44:47.034Z,6.30
2023-01-28T10:47:25.843Z,6.28
2023-01-28T10:50:00.061Z,6.28
2023-01-28T10:52:27.710Z,5.78
2023-01-28T10:55:06.737Z,9.50
2023-01-28T10:57:35.715Z,6.10
2023-01-28T11:00:21.553Z,7.10
2023-01-28T11:02:51.193Z,6.65
2023-01-28T11:05:27.623Z,7.40
2023-01-28T11:08:15.722Z,7.30
2023-01-28T11:10:44.573Z,7.63
2023-01-28T11:13:28.542Z,7.03
2023-01-28T11:16:05.144Z,5.68
2023-01-28T11:18:35.543Z,5.75
2023-01-28T11:21:16.154Z,6.22
2023-01-28T11:24:23.696Z,5.15
2023-01-28T11:26:54.521Z,5.68
2023-01-28T11:29:30.613Z,7.00
2023-01-28T11:31:59.928Z,7.97
2023-01-28T11:34:30.786Z,7.45
2023-01-28T11:37:16.539Z,6.00
2023-01-28T11:39:44.495Z,6.25
2023-01-28T11:42:19.577Z,6.35
2023-01-28T11:44:48.622Z,6.30
2023-01-28T11:47:21.731Z,6.03
2023-01-28T11:49:49.212Z,5.90
2023-01-28T11:52:28.517Z,6.03
2023-01-28T11:55:19.011Z,5.55
2023-01-28T11:58:07.643Z,5.95
2023-01-28T12:00:37.841Z,6.28
2023-01-28T12:03:50.096Z,6.45
2023-01-28T12:06:36.556Z,7.00
2023-01-28T12:09:22.299Z,5.85
2023-01-28T12:12:14.141Z,7.15
2023-01-28T16:02:24.053Z,6.93
2023-01-28T16:05:01.100Z,7.00
2023-01-28T16:07:33.500Z,6.60
2023-01-28T16:12:30.604Z,6.32
2023-01-28T16:15:00.830Z,5.38
2023-01-28T16:17:36.014Z,8.00
2023-01-28T16:20:07.159Z,7.53
2023-01-28T16:22:43.863Z,9.48
2023-01-28T16:25:30.707Z,7.95
2023-01-28T16:27:59.186Z,10.32
2023-01-28T16:30:27.325Z,15.07
2023-01-28T16:32:58.699Z,16.63
2023-01-28T16:35:46.950Z,16.35
2023-01-28T16:38:19.010Z,19.23
2023-01-28T16:40:47.779Z,20.02
2023-01-28T16:43:16.677Z,21.08
2023-01-28T16:45:46.164Z,16.58
2023-01-28T16:48:13.567Z,18.77
2023-01-28T16:50:43.029Z,14.70
2023-01-28T16:53:19.241Z,14.20
2023-01-28T16:55:46.726Z,14.50
2023-01-28T16:58:14.513Z,14.32
2023-01-28T17:00:42.451Z,11.38
2023-01-28T17:03:09.461Z,11.05
2023-01-28T17:05:36.817Z,10.52
2023-01-28T17:08:03.964Z,12.95
2023-01-28T17:10:31.171Z,13.60
2023-01-28T17:12:59.145Z,9.00
2023-01-28T17:15:26.169Z,8.55
2023-01-28T17:17:53.941Z,5.90
2023-01-28T17:20:21.419Z,7.22
2023-01-28T17:22:48.578Z,6.70
2023-01-28T17:25:16.086Z,8.13
2023-01-28T17:27:43.823Z,8.25
2023-01-28T17:30:11.555Z,7.88
2023-01-28T17:32:38.780Z,8.02
2023-01-28T17:35:06.447Z,9.25
2023-01-28T17:37:33.456Z,8.93
2023-01-28T17:40:00.861Z,8.35
2023-01-28T17:42:28.469Z,8.32
2023-01-28T17:44:56.055Z,8.98
2023-01-28T17:47:23.225Z,7.47
2023-01-28T17:49:50.572Z,7.85
2023-01-28T17:52:17.649Z,5.80
2023-01-28T17:54:44.972Z,5.70
2023-01-28T17:57:12.274Z,5.72
2023-01-28T17:59:39.474Z,5.38
2023-01-28T18:02:07.320Z,4.82
2023-01-28T18:04:41.652Z,6.15
2023-01-28T18:07:11.521Z,7.00
2023-01-28T18:09:44.807Z,8.82
2023-01-28T18:12:16.213Z,7.13
2023-01-28T18:14:44.107Z,7.88
2023-01-28T18:17:12.032Z,6.30
2023-01-28T18:19:39.268Z,5.93
2023-01-28T18:22:06.856Z,6.18
2023-01-28T18:24:34.789Z,5.72
2023-01-28T18:27:03.471Z,6.05
2023-01-28T18:29:32.120Z,6.00
2023-01-28T18:32:00.574Z,8.65
2023-01-28T18:34:31.394Z,8.85
2023-01-28T18:36:59.430Z,10.60
2023-01-28T18:39:30.425Z,13.23
2023-01-28T18:41:58.768Z,11.30
2023-01-28T18:44:30.457Z,9.27
2023-01-28T18:46:57.980Z,9.50
2023-01-28T18:49:25.471Z,10.95
2023-01-28T18:51:52.908Z,9.77
2023-01-28T18:54:21.060Z,8.63
2023-01-28T18:56:49.566Z,7.93
2023-01-28T18:59:17.023Z,8.38
2023-01-28T19:01:47.945Z,9.40
2023-01-28T19:04:16.158Z,8.02
2023-01-28T19:06:43.589Z,7.00
2023-01-28T19:09:13.091Z,6.03
2023-01-28T19:11:42.086Z,6.18
2023-01-28T19:14:13.235Z,6.38
2023-01-28T19:16:40.515Z,6.32
2023-01-28T19:19:08.148Z,5.97
2023-01-28T19:21:36.111Z,5.80
2023-01-28T19:24:12.918Z,6.35
2023-01-28T19:26:43.162Z,7.10
2023-01-28T19:29:13.431Z,7.22
2023-01-28T19:31:43.464Z,5.93
2023-01-28T19:34:11.386Z,6.13
2023-01-28T19:36:39.097Z,6.35
2023-01-28T19:39:08.860Z,4.78
2023-01-28T19:41:36.895Z,5.97
2023-01-28T19:44:05.311Z,5.88
2023-01-28T19:46:33.767Z,5.43
2023-01-28T19:49:01.410Z,5.57
2023-01-28T19:51:28.967Z,5.07
2023-01-28T19:53:56.486Z,5.25
2023-01-28T23:49:42.904Z,2.08
2023-01-28T23:52:09.416Z,1.77
2023-01-28T23:54:35.792Z,3.45
2023-01-28T23:57:02.717Z,3.05
2023-01-28T23:59:34.125Z,2.78
